Yonago, Japan

12:39 PM JST on August 26, 2016 (GMT +0900)
Miho Aero | | Change Station

Elev 20 ft 35.49 °N, 133.24 °E | Updated 39 minutes ago

Mostly Cloudy
Mostly Cloudy
88 °F
Feels Like 93 °F
N
13
Wind Variable Wind from West

Today
High -- | Low -- °F
--% Chance of Precip.
Yesterday
High -- | Low -- °F
Precip. -- in
Pressure 29.65 in
Visibility 6.2 miles
Clouds Few 2000 ft
Mostly Cloudy 3500 ft
Few 3500 ft
Mostly Cloudy 5000 ft
Heat Index 93 °F
Dew Point 70 °F
Humidity 55%
Rainfall 0.00 in
Snow Depth Not available.
5:34 AM 6:41 PM
Last Quarter, 39% visible
METAR RJOH 260300Z 26011KT 9999 FEW020 BKN035 FEW035TCU BKN050 31/21 Q1004
Pressure 29.65 in
Visibility 6.2 miles
Clouds Few 2000 ft
Mostly Cloudy 3500 ft
Few 3500 ft
Mostly Cloudy 5000 ft
Heat Index 93 °F
Dew Point 70 °F
Humidity 55%
Rainfall 0.00 in
Snow Depth Not available.
5:34 AM 6:41 PM
Last Quarter, 39% visible
METAR RJOH 260300Z 26011KT 9999 FEW020 BKN035 FEW035TCU BKN050 31/21 Q1004

10-Day Weather Forecast

No radar image for this location.
×

Almanac

Astronomy

Aug. 26, 2016 Rise Set
Actual Time
Civil Twilight
Nautical Twilight
Astronomical Twilight
Moon
Length of Visible Light
Length of Day
Tomorrow will be .
, % of the Moon is Illuminated

Today's Extremes

Country Highs Country Lows

Community

WunderPhotos

Upload Photos

1,935,049 photos uploaded!

WunderBlog® & News

Nearby

Air Quality

  Air Quality AQ Index Pollutant
Not available.

Snow Depth

Station Depth Elevation

Earthquake Activity

City Distance Mag. Time & Date
Minimum magnitude displayed is 2.5.

Coastal Water Temperatures

Place Temperature

Stations

Nearby Weather Stations

Station Location Temp. Windchill Dew Point Humidity Wind Precip. Elev Updated Type